createdAt,value
2022-11-30T00:00:54.340Z,25.00
2022-11-30T00:03:22.228Z,25.37
2022-11-30T00:05:49.677Z,24.10
2022-11-30T00:08:17.989Z,22.57
2022-11-30T00:10:45.367Z,24.13
2022-11-30T00:13:12.743Z,21.30
2022-11-30T00:15:40.275Z,21.97
2022-11-30T00:18:08.846Z,24.27
2022-11-30T00:20:36.219Z,22.13
2022-11-30T00:23:03.633Z,22.40
2022-11-30T00:25:33.358Z,19.63
2022-11-30T00:28:01.825Z,21.03
2022-11-30T00:30:29.594Z,20.83
2022-11-30T00:32:58.393Z,20.70
2022-11-30T00:35:25.839Z,21.57
2022-11-30T00:37:53.290Z,19.93
2022-11-30T00:40:20.712Z,20.50
2022-11-30T00:42:48.089Z,18.77
2022-11-30T00:45:15.488Z,20.30
2022-11-30T00:47:42.823Z,21.60
2022-11-30T00:50:10.428Z,20.27
2022-11-30T00:52:37.817Z,18.97
2022-11-30T00:55:05.327Z,20.17
2022-11-30T00:57:32.863Z,21.33
2022-11-30T01:00:00.248Z,22.17
2022-11-30T01:02:27.737Z,20.97
2022-11-30T01:04:55.119Z,20.37
2022-11-30T01:07:22.564Z,20.93
2022-11-30T01:09:49.942Z,20.07
2022-11-30T01:12:17.316Z,21.30
2022-11-30T01:14:44.990Z,19.53
2022-11-30T01:17:12.605Z,22.00
2022-11-30T01:19:40.084Z,23.03
2022-11-30T01:22:07.488Z,22.57
2022-11-30T01:24:34.855Z,21.90
2022-11-30T01:27:02.241Z,21.50
2022-11-30T01:29:30.755Z,21.80
2022-11-30T01:31:58.134Z,20.33
2022-11-30T01:34:25.537Z,21.70
2022-11-30T01:39:34.439Z,21.40
2022-11-30T01:42:01.801Z,20.93
2022-11-30T01:44:30.744Z,21.77
2022-11-30T01:47:10.785Z,20.80
2022-11-30T01:49:40.021Z,20.43
2022-11-30T01:52:11.223Z,19.00
2022-11-30T01:55:01.800Z,18.87
2022-11-30T01:57:39.504Z,18.70
2022-11-30T02:00:08.508Z,19.47
2022-11-30T02:02:45.060Z,20.13
2022-11-30T02:05:13.303Z,20.00
2022-11-30T02:07:41.092Z,18.87
2022-11-30T02:10:08.769Z,17.23
2022-11-30T02:12:43.084Z,16.63
2022-11-30T02:15:12.693Z,15.70
2022-11-30T02:17:48.017Z,15.90
2022-11-30T02:20:34.682Z,15.00
2022-11-30T02:23:12.485Z,15.67
2022-11-30T02:26:03.930Z,16.00
2022-11-30T02:28:49.865Z,15.80
2022-11-30T02:31:20.360Z,15.40
2022-11-30T02:33:48.437Z,14.90
2022-11-30T02:36:16.111Z,15.13
2022-11-30T02:38:43.710Z,15.13
2022-11-30T02:41:11.238Z,15.20
2022-11-30T02:43:39.348Z,16.63
2022-11-30T02:46:09.824Z,15.80
2022-11-30T02:48:37.130Z,17.03
2022-11-30T02:51:05.442Z,16.13
2022-11-30T02:53:33.011Z,16.17
2022-11-30T02:56:00.367Z,17.20
2022-11-30T02:58:27.961Z,17.27
2022-11-30T03:00:55.391Z,15.37
2022-11-30T03:03:22.875Z,15.67
2022-11-30T03:07:46.127Z,15.50
2022-11-30T03:10:13.509Z,14.90
2022-11-30T03:12:40.882Z,14.37
2022-11-30T03:15:08.426Z,12.63
2022-11-30T03:17:35.802Z,11.60
2022-11-30T03:20:03.206Z,11.50
2022-11-30T03:22:30.653Z,12.73
2022-11-30T03:24:58.063Z,13.23
2022-11-30T03:27:25.422Z,11.47
2022-11-30T03:29:52.763Z,11.10
2022-11-30T03:32:20.215Z,10.87
2022-11-30T03:34:47.894Z,11.17
2022-11-30T03:37:15.560Z,10.60
2022-11-30T03:39:42.969Z,10.83
2022-11-30T03:42:11.081Z,9.77
2022-11-30T03:44:38.533Z,10.87
2022-11-30T03:47:06.218Z,10.80
2022-11-30T03:49:33.619Z,12.00
2022-11-30T03:52:01.015Z,10.20
2022-11-30T03:54:28.396Z,10.00
2022-11-30T03:56:55.776Z,10.37
2022-11-30T03:59:23.197Z,10.37
2022-11-30T04:01:50.734Z,13.63
2022-11-30T04:04:18.150Z,8.77
2022-11-30T04:06:45.740Z,10.07
2022-11-30T04:09:13.139Z,11.13
2022-11-30T04:11:40.720Z,10.67
2022-11-30T04:14:08.206Z,10.87
2022-11-30T04:16:35.555Z,9.90
2022-11-30T04:19:02.918Z,10.53
2022-11-30T04:21:30.295Z,9.70
2022-11-30T04:23:57.688Z,9.13
2022-11-30T04:26:25.042Z,11.03
2022-11-30T04:28:52.370Z,10.67
2022-11-30T04:31:19.756Z,9.70
2022-11-30T04:33:47.111Z,11.43
2022-11-30T04:36:18.886Z,10.20
2022-11-30T04:38:46.845Z,10.27
2022-11-30T04:41:14.256Z,9.97
2022-11-30T04:43:41.646Z,10.90
2022-11-30T04:46:09.141Z,11.33
2022-11-30T04:48:36.513Z,11.37
2022-11-30T04:51:06.025Z,11.07
2022-11-30T04:53:37.036Z,11.63
2022-11-30T04:56:08.535Z,11.30
2022-11-30T04:58:36.254Z,10.57
2022-11-30T05:01:03.785Z,11.20
2022-11-30T05:03:31.224Z,11.87
2022-11-30T05:05:58.576Z,11.33
2022-11-30T05:08:26.339Z,15.20
2022-11-30T05:10:54.802Z,13.23
2022-11-30T05:13:23.196Z,12.63
2022-11-30T05:15:50.755Z,16.93
2022-11-30T05:18:18.188Z,12.33
2022-11-30T05:20:52.858Z,11.73
2022-11-30T05:23:20.690Z,11.70
2022-11-30T05:25:49.168Z,11.10
2022-11-30T05:28:16.996Z,9.30
2022-11-30T05:30:44.545Z,8.57
2022-11-30T05:33:12.053Z,11.80
2022-11-30T05:35:39.523Z,63.80
2022-11-30T05:38:07.085Z,14.70
2022-11-30T05:40:34.647Z,9.67
2022-11-30T05:43:02.712Z,14.77
2022-11-30T05:45:30.229Z,10.10
2022-11-30T05:47:57.569Z,18.03
2022-11-30T05:50:25.039Z,13.53
2022-11-30T05:53:00.882Z,24.13
2022-11-30T05:55:29.615Z,29.57
2022-11-30T05:57:59.482Z,26.10
2022-11-30T06:00:26.967Z,26.17
2022-11-30T06:02:58.327Z,40.30
2022-11-30T06:05:26.642Z,30.53
2022-11-30T06:07:54.655Z,26.53
2022-11-30T06:10:22.380Z,27.80
2022-11-30T06:12:49.816Z,33.63
2022-11-30T06:15:17.165Z,26.83
2022-11-30T06:17:44.665Z,26.37
2022-11-30T06:20:12.189Z,28.93
2022-11-30T06:22:39.578Z,25.53
2022-11-30T06:25:07.063Z,32.50
2022-11-30T06:27:34.483Z,25.53
2022-11-30T06:30:01.892Z,26.97
2022-11-30T06:32:29.301Z,43.80
2022-11-30T06:34:56.692Z,28.07
2022-11-30T06:37:24.075Z,40.47
2022-11-30T06:40:06.040Z,28.93
2022-11-30T06:42:34.896Z,31.37
2022-11-30T06:45:02.317Z,28.83
2022-11-30T06:47:29.671Z,29.83
2022-11-30T06:49:57.078Z,31.60
2022-11-30T06:52:24.608Z,31.87
2022-11-30T06:54:52.004Z,32.97
2022-11-30T06:57:19.356Z,30.73
2022-11-30T06:59:47.514Z,29.87
2022-11-30T07:02:18.221Z,43.90
2022-11-30T07:04:47.007Z,31.90
2022-11-30T07:07:15.131Z,31.57
2022-11-30T07:09:42.513Z,28.27
2022-11-30T07:12:09.918Z,29.57
2022-11-30T07:14:37.414Z,30.33
2022-11-30T07:17:04.866Z,38.97
2022-11-30T07:19:34.434Z,28.03
2022-11-30T07:22:02.188Z,27.90
2022-11-30T07:24:48.668Z,26.20
2022-11-30T07:27:16.257Z,29.67
2022-11-30T07:29:43.659Z,28.27
2022-11-30T07:32:11.109Z,24.80
2022-11-30T07:34:38.593Z,29.33
2022-11-30T07:37:06.055Z,26.50
2022-11-30T07:39:33.504Z,25.93
2022-11-30T07:42:00.912Z,23.37
2022-11-30T07:44:28.362Z,24.60
2022-11-30T07:46:55.791Z,23.97
2022-11-30T07:49:23.182Z,25.43
2022-11-30T07:51:50.531Z,25.23
2022-11-30T07:54:17.887Z,25.27
2022-11-30T07:56:45.260Z,23.83
2022-11-30T07:59:12.600Z,21.77
2022-11-30T08:01:40.068Z,21.70
2022-11-30T08:04:07.590Z,21.97
2022-11-30T08:06:35.073Z,20.30
2022-11-30T08:09:04.047Z,21.53
2022-11-30T08:11:33.252Z,20.80
2022-11-30T08:14:01.031Z,20.87
2022-11-30T08:16:29.539Z,21.43
2022-11-30T08:18:57.722Z,21.37
2022-11-30T08:21:25.476Z,21.50
2022-11-30T08:23:54.212Z,20.90
2022-11-30T08:26:23.048Z,21.97
2022-11-30T08:28:51.143Z,21.33
2022-11-30T08:31:37.674Z,21.43
2022-11-30T08:34:06.794Z,21.50
2022-11-30T08:36:34.890Z,21.50
2022-11-30T08:39:04.328Z,22.27
2022-11-30T08:41:31.815Z,21.73
2022-11-30T08:44:02.121Z,22.77
2022-11-30T08:49:21.901Z,22.07
2022-11-30T08:52:16.362Z,20.93
2022-11-30T08:54:40.113Z,23.57
2022-11-30T08:57:07.482Z,22.23
2022-11-30T08:59:34.811Z,22.40
2022-11-30T09:02:02.334Z,23.73
2022-11-30T09:04:30.114Z,20.17
2022-11-30T09:06:59.311Z,20.33
2022-11-30T09:09:26.921Z,21.50
2022-11-30T09:11:54.301Z,22.47
2022-11-30T09:14:21.817Z,28.95
2022-11-30T09:16:49.255Z,24.87
2022-11-30T09:19:16.724Z,24.73
2022-11-30T09:21:49.768Z,24.10
2022-11-30T09:24:18.833Z,24.80
2022-11-30T09:26:46.205Z,24.30
2022-11-30T09:29:13.555Z,22.37
2022-11-30T09:31:40.973Z,23.17
2022-11-30T09:34:08.365Z,23.57
2022-11-30T09:36:36.614Z,23.40
2022-11-30T09:39:04.020Z,21.83
2022-11-30T09:41:31.366Z,23.13
2022-11-30T09:44:22.230Z,22.40
2022-11-30T09:47:00.272Z,21.93
2022-11-30T09:49:30.708Z,21.07
2022-11-30T09:52:01.312Z,21.80
2022-11-30T09:54:35.579Z,20.90
2022-11-30T09:57:18.359Z,20.70
2022-11-30T09:59:49.296Z,19.47
2022-11-30T10:02:18.188Z,19.37
2022-11-30T10:04:46.346Z,20.37
2022-11-30T10:07:13.936Z,20.07
2022-11-30T10:10:30.412Z,21.13
2022-11-30T10:12:59.264Z,21.10
2022-11-30T10:15:29.499Z,20.30
2022-11-30T10:17:57.841Z,19.87
2022-11-30T10:20:46.973Z,18.60
2022-11-30T10:23:14.328Z,18.83
2022-11-30T10:25:48.333Z,22.70
2022-11-30T10:28:49.799Z,20.13
2022-11-30T10:31:18.022Z,33.47
2022-11-30T10:33:50.046Z,19.47
2022-11-30T10:36:26.453Z,22.07
2022-11-30T10:38:56.834Z,21.13
2022-11-30T10:41:30.179Z,20.97
2022-11-30T10:44:05.726Z,19.57
2022-11-30T10:46:44.174Z,20.93
2022-11-30T10:49:17.239Z,19.23
2022-11-30T10:51:46.104Z,22.27
2022-11-30T10:54:21.423Z,20.77
2022-11-30T10:56:49.046Z,20.67
2022-11-30T10:59:16.542Z,21.67
2022-11-30T11:01:44.310Z,21.03
2022-11-30T11:04:17.751Z,21.37
2022-11-30T11:06:47.078Z,21.50
2022-11-30T11:09:24.268Z,21.13
2022-11-30T11:11:55.966Z,20.93
2022-11-30T11:14:24.420Z,21.50
2022-11-30T11:17:02.873Z,24.83
2022-11-30T11:19:36.425Z,22.80
2022-11-30T11:22:05.784Z,22.27
2022-11-30T11:24:33.559Z,25.43
2022-11-30T11:27:01.065Z,22.50
2022-11-30T11:29:33.559Z,24.90
2022-11-30T11:32:19.157Z,26.00
2022-11-30T11:34:51.075Z,24.03
2022-11-30T11:37:19.546Z,24.80
2022-11-30T11:39:59.013Z,26.20
2022-11-30T11:42:27.684Z,26.53
2022-11-30T11:44:57.307Z,26.53
2022-11-30T11:47:39.191Z,25.93
2022-11-30T11:50:08.521Z,28.60
2022-11-30T11:52:35.989Z,28.83
2022-11-30T11:55:05.818Z,29.37
2022-11-30T11:57:48.632Z,28.50
2022-11-30T12:00:17.668Z,29.53
2022-11-30T12:02:57.283Z,30.50
2022-11-30T12:05:44.968Z,30.50
2022-11-30T12:08:29.524Z,28.43
2022-11-30T12:11:02.466Z,30.57
2022-11-30T12:13:34.313Z,29.37
2022-11-30T12:16:07.703Z,31.53
2022-11-30T12:18:53.387Z,32.27
2022-11-30T12:21:36.029Z,30.90
2022-11-30T12:24:05.934Z,30.67
2022-11-30T12:26:42.601Z,32.30
2022-11-30T12:29:26.372Z,34.73
2022-11-30T12:32:12.664Z,29.73
2022-11-30T12:34:43.073Z,31.33
2022-11-30T12:37:10.561Z,36.10
2022-11-30T12:39:49.931Z,32.40
2022-11-30T12:42:23.847Z,29.27
2022-11-30T12:44:54.012Z,28.87
2022-11-30T12:47:28.993Z,28.97
2022-11-30T12:50:02.525Z,28.93
2022-11-30T12:52:33.018Z,27.70
2022-11-30T12:55:06.408Z,28.17
2022-11-30T12:57:37.441Z,26.77
2022-11-30T13:00:07.739Z,28.83
2022-11-30T13:02:53.956Z,28.70
2022-11-30T13:05:25.199Z,29.47
2022-11-30T13:07:58.078Z,28.57
2022-11-30T13:10:27.249Z,27.10
2022-11-30T13:12:55.921Z,27.47
2022-11-30T13:15:24.441Z,29.23
2022-11-30T13:17:52.230Z,28.47
2022-11-30T13:20:35.077Z,30.20
2022-11-30T13:23:07.130Z,29.20
2022-11-30T13:28:36.928Z,27.43
2022-11-30T13:31:06.606Z,28.27
2022-11-30T13:33:46.374Z,27.10
2022-11-30T13:36:31.784Z,28.43
2022-11-30T13:39:14.494Z,29.20
2022-11-30T13:41:43.644Z,27.37
2022-11-30T13:44:29.732Z,25.90
2022-11-30T13:46:57.486Z,24.93
2022-11-30T13:49:29.004Z,26.53
2022-11-30T13:52:21.678Z,27.00
2022-11-30T13:54:47.261Z,27.23
2022-11-30T13:57:30.302Z,28.07
2022-11-30T14:00:01.570Z,27.23
2022-11-30T14:02:32.349Z,29.67
2022-11-30T14:05:11.727Z,27.57
2022-11-30T14:07:39.425Z,30.57
2022-11-30T14:10:26.802Z,30.90
2022-11-30T14:13:04.485Z,29.03
2022-11-30T14:15:38.089Z,29.73
2022-11-30T14:18:25.960Z,33.17
2022-11-30T14:20:53.428Z,34.03
2022-11-30T14:23:30.384Z,33.67
2022-11-30T14:26:00.275Z,35.37
2022-11-30T14:28:38.086Z,33.90
2022-11-30T14:31:07.164Z,32.90
2022-11-30T14:33:43.770Z,37.07
2022-11-30T14:36:11.637Z,36.73
2022-11-30T14:38:41.365Z,34.70
2022-11-30T14:41:20.067Z,33.17
2022-11-30T14:44:04.954Z,37.80
2022-11-30T14:46:35.220Z,36.17
2022-11-30T14:49:05.902Z,36.70
2022-11-30T14:51:33.617Z,36.73
2022-11-30T14:54:06.640Z,34.57
2022-11-30T14:56:38.122Z,39.73
2022-11-30T14:59:29.709Z,38.20
2022-11-30T15:02:01.359Z,38.63
2022-11-30T15:04:30.096Z,53.95
2022-11-30T15:06:57.628Z,46.20
2022-11-30T15:09:26.321Z,45.17
2022-11-30T15:11:53.951Z,43.33
2022-11-30T15:14:21.504Z,41.80
2022-11-30T15:16:53.355Z,41.07
2022-11-30T15:19:25.187Z,44.33
2022-11-30T15:21:53.027Z,46.07
2022-11-30T15:24:21.046Z,43.07
2022-11-30T15:26:55.613Z,49.45
2022-11-30T15:29:28.008Z,42.40
2022-11-30T15:31:56.809Z,45.57
2022-11-30T15:34:27.260Z,43.63
2022-11-30T15:36:55.660Z,41.37
2022-11-30T15:39:24.363Z,43.57
2022-11-30T15:42:02.074Z,39.90
2022-11-30T15:44:38.887Z,39.90
2022-11-30T15:47:07.230Z,43.97
2022-11-30T15:49:38.274Z,39.13
2022-11-30T15:52:09.121Z,38.57
2022-11-30T15:54:42.782Z,41.03
2022-11-30T15:57:10.241Z,39.53
2022-11-30T15:59:37.627Z,41.07
2022-11-30T16:02:08.625Z,39.67
2022-11-30T16:04:54.501Z,38.70
2022-11-30T16:07:29.915Z,40.13
2022-11-30T16:10:07.900Z,41.50
2022-11-30T16:12:35.295Z,39.90
2022-11-30T16:15:03.361Z,41.43
2022-11-30T16:17:30.863Z,41.40
2022-11-30T16:19:58.343Z,43.27
2022-11-30T16:22:25.793Z,46.33
2022-11-30T16:24:53.150Z,40.23
2022-11-30T16:27:22.533Z,42.77
2022-11-30T16:29:52.662Z,41.37
2022-11-30T16:32:20.362Z,40.77
2022-11-30T16:34:48.562Z,39.90
2022-11-30T16:37:15.936Z,40.90
2022-11-30T16:39:43.358Z,43.17
2022-11-30T16:42:13.628Z,42.13
2022-11-30T16:44:41.040Z,45.50
2022-11-30T16:47:08.420Z,41.50
2022-11-30T16:49:35.841Z,46.97
2022-11-30T16:52:03.943Z,45.53
2022-11-30T16:54:31.564Z,44.57
2022-11-30T16:56:58.948Z,44.83
2022-11-30T16:59:26.360Z,42.20
2022-11-30T17:01:54.157Z,42.47
2022-11-30T17:04:23.216Z,44.47
2022-11-30T17:06:54.691Z,45.10
2022-11-30T17:09:24.758Z,44.17
2022-11-30T17:11:52.208Z,44.07
2022-11-30T17:14:22.395Z,42.17
2022-11-30T17:16:50.011Z,42.67
2022-11-30T17:19:17.529Z,38.57
2022-11-30T17:21:45.068Z,39.20
2022-11-30T17:24:12.676Z,38.97
2022-11-30T17:26:40.273Z,41.27
2022-11-30T17:29:07.801Z,38.93
2022-11-30T17:31:35.655Z,39.90
2022-11-30T17:34:02.991Z,41.97
2022-11-30T17:36:30.538Z,37.00
2022-11-30T17:38:57.909Z,40.73
2022-11-30T17:41:25.276Z,38.83
2022-11-30T17:43:52.945Z,38.83
2022-11-30T17:46:21.117Z,39.40
2022-11-30T17:48:49.702Z,42.93
2022-11-30T17:51:17.306Z,45.90
2022-11-30T17:53:44.885Z,41.30
2022-11-30T17:56:17.129Z,42.23
2022-11-30T17:58:46.194Z,37.47
2022-11-30T18:01:17.775Z,40.77
2022-11-30T18:03:45.505Z,41.73
2022-11-30T18:06:13.406Z,43.67
2022-11-30T18:08:41.046Z,39.50
2022-11-30T18:11:12.942Z,40.83
2022-11-30T18:13:40.439Z,37.33
2022-11-30T18:16:09.128Z,41.57
2022-11-30T18:18:36.726Z,45.17
2022-11-30T18:21:08.358Z,40.40
2022-11-30T18:23:36.323Z,43.30
2022-11-30T18:26:04.476Z,39.83
2022-11-30T18:28:31.971Z,37.50
2022-11-30T18:30:59.599Z,42.10
2022-11-30T18:33:27.191Z,40.57
2022-11-30T18:35:58.483Z,41.07
2022-11-30T18:38:26.210Z,39.17
2022-11-30T18:40:54.076Z,37.40
2022-11-30T18:43:21.776Z,41.60
2022-11-30T18:45:49.411Z,35.13
2022-11-30T18:48:16.888Z,35.10
2022-11-30T18:50:44.320Z,37.53
2022-11-30T18:53:15.224Z,37.53
2022-11-30T18:55:45.569Z,31.93
2022-11-30T18:58:13.017Z,37.00
2022-11-30T19:00:40.478Z,37.07
2022-11-30T19:03:07.996Z,40.37
2022-11-30T19:05:38.202Z,38.67
2022-11-30T19:08:07.514Z,39.00
2022-11-30T19:10:44.119Z,38.63
2022-11-30T19:13:11.499Z,39.83
2022-11-30T19:15:42.487Z,38.43
2022-11-30T19:18:11.199Z,37.47
2022-11-30T19:20:42.219Z,40.17
2022-11-30T19:23:10.134Z,34.13
2022-11-30T19:25:37.744Z,35.60
2022-11-30T19:28:05.220Z,45.83
2022-11-30T19:30:32.666Z,36.93
2022-11-30T19:33:00.146Z,35.57
2022-11-30T19:35:27.586Z,34.80
2022-11-30T19:37:55.074Z,35.17
2022-11-30T19:40:22.560Z,36.27
2022-11-30T19:42:49.925Z,35.05
2022-11-30T19:45:18.167Z,36.17
2022-11-30T19:47:45.686Z,34.53
2022-11-30T19:50:13.110Z,34.70
2022-11-30T19:52:40.543Z,32.67
2022-11-30T19:55:08.191Z,37.07
2022-11-30T19:57:36.069Z,36.00
2022-11-30T20:00:06.236Z,36.50
2022-11-30T20:02:40.239Z,35.93
2022-11-30T20:05:07.824Z,35.83
2022-11-30T20:07:36.519Z,36.27
2022-11-30T20:10:04.469Z,36.63
2022-11-30T20:12:32.243Z,36.17
2022-11-30T20:14:59.777Z,46.50
2022-11-30T20:17:27.218Z,40.23
2022-11-30T20:19:54.641Z,38.97
2022-11-30T20:22:22.071Z,36.87
2022-11-30T20:24:50.993Z,37.63
2022-11-30T20:27:25.198Z,41.97
2022-11-30T20:29:52.973Z,43.17
2022-11-30T20:32:20.417Z,34.77
2022-11-30T20:34:48.237Z,33.60
2022-11-30T20:37:17.922Z,35.73
2022-11-30T20:39:51.279Z,33.90
2022-11-30T20:42:18.989Z,33.33
2022-11-30T20:44:46.649Z,36.20
2022-11-30T20:47:14.266Z,32.33
2022-11-30T20:49:41.622Z,32.87
2022-11-30T20:52:09.021Z,37.50
2022-11-30T20:54:36.403Z,32.73
2022-11-30T20:57:03.810Z,32.63
2022-11-30T20:59:31.213Z,33.57
2022-11-30T21:01:58.719Z,28.57
2022-11-30T21:04:26.587Z,30.53
2022-11-30T21:06:54.471Z,27.53
2022-11-30T21:09:22.235Z,28.57
2022-11-30T21:11:49.881Z,28.40
2022-11-30T21:14:20.384Z,26.37
2022-11-30T21:16:47.742Z,28.17
2022-11-30T21:19:15.372Z,26.03
2022-11-30T21:21:42.767Z,24.90
2022-11-30T21:24:11.781Z,25.07
2022-11-30T21:26:40.570Z,25.23
2022-11-30T21:29:12.452Z,25.30
2022-11-30T21:31:39.929Z,27.03
2022-11-30T21:34:07.449Z,26.70
2022-11-30T21:36:35.040Z,27.17
2022-11-30T21:39:06.618Z,26.50
2022-11-30T21:41:38.549Z,28.33
2022-11-30T21:44:06.747Z,27.67
2022-11-30T21:46:34.288Z,28.90
2022-11-30T21:49:01.881Z,29.07
2022-11-30T21:51:31.643Z,28.03
2022-11-30T21:54:01.872Z,26.53
2022-11-30T21:56:30.735Z,25.73
2022-11-30T21:58:58.432Z,31.67
2022-11-30T22:01:32.952Z,27.90
2022-11-30T22:04:01.164Z,26.77
2022-11-30T22:06:30.072Z,26.30
2022-11-30T22:09:03.344Z,25.40
2022-11-30T22:11:31.629Z,25.73
2022-11-30T22:13:59.147Z,26.00
2022-11-30T22:16:34.020Z,27.13
2022-11-30T22:19:03.218Z,27.10
2022-11-30T22:21:31.383Z,26.97
2022-11-30T22:23:59.955Z,25.37
2022-11-30T22:26:27.343Z,27.80
2022-11-30T22:28:58.761Z,25.40
2022-11-30T22:31:27.973Z,25.97
2022-11-30T22:33:56.104Z,28.77
2022-11-30T22:36:25.435Z,27.77
2022-11-30T22:39:00.399Z,26.50
2022-11-30T22:41:28.321Z,23.27
2022-11-30T22:43:56.325Z,24.17
2022-11-30T22:46:25.015Z,26.23
2022-11-30T22:48:52.487Z,24.27
2022-11-30T22:51:21.356Z,24.83
2022-11-30T22:53:49.085Z,25.70
2022-11-30T22:56:16.500Z,23.77
2022-11-30T22:58:44.146Z,24.00
2022-11-30T23:01:12.881Z,22.73
2022-11-30T23:03:41.033Z,24.23
2022-11-30T23:06:12.072Z,26.00
2022-11-30T23:08:39.810Z,24.83
2022-11-30T23:11:09.285Z,23.30
2022-11-30T23:13:37.265Z,23.80
2022-11-30T23:16:04.968Z,22.80
2022-11-30T23:18:37.135Z,21.50
2022-11-30T23:21:06.261Z,20.93
2022-11-30T23:23:33.632Z,22.80
2022-11-30T23:26:11.322Z,22.57
2022-11-30T23:28:40.958Z,21.43
2022-11-30T23:31:09.428Z,21.27
2022-11-30T23:33:37.414Z,21.90
2022-11-30T23:36:05.423Z,21.60
2022-11-30T23:38:33.118Z,24.53
2022-11-30T23:41:10.669Z,22.40
2022-11-30T23:43:38.594Z,23.70
2022-11-30T23:46:07.295Z,23.43
2022-11-30T23:48:34.718Z,23.93
2022-11-30T23:51:02.650Z,25.53
2022-11-30T23:53:30.446Z,24.50
2022-11-30T23:55:58.039Z,26.40
2022-11-30T23:58:25.411Z,26.30
